createdAt,value
2016-03-02T00:00:00.588Z,0
2016-03-02T00:01:00.606Z,0
2016-03-02T00:02:00.671Z,0
2016-03-02T00:03:00.706Z,0
2016-03-02T00:04:00.786Z,0
2016-03-02T00:05:00.695Z,0
2016-03-02T00:06:00.870Z,0
2016-03-02T00:07:00.935Z,0
2016-03-02T00:08:00.969Z,0
2016-03-02T00:09:01.034Z,0
2016-03-02T00:10:01.067Z,0
2016-03-02T00:11:01.133Z,0
2016-03-02T00:12:01.166Z,0
2016-03-02T00:13:01.233Z,0
2016-03-02T00:14:01.266Z,0
2016-03-02T00:15:01.331Z,0
2016-03-02T00:16:01.366Z,0
2016-03-02T00:17:01.430Z,0
2016-03-02T00:18:01.480Z,0
2016-03-02T00:19:01.545Z,0
2016-03-02T00:20:01.580Z,0
2016-03-02T00:21:01.629Z,0
2016-03-02T00:22:01.677Z,0
2016-03-02T00:23:01.728Z,0
2016-03-02T00:24:01.824Z,0
2016-03-02T00:25:01.827Z,0
2016-03-02T00:26:01.893Z,0
2016-03-02T00:27:01.926Z,0
2016-03-02T00:28:01.991Z,0
2016-03-02T00:29:02.056Z,0
2016-03-02T00:30:02.107Z,0
2016-03-02T00:31:02.156Z,0
2016-03-02T00:32:02.190Z,0
2016-03-02T00:33:02.239Z,0
2016-03-02T00:34:02.320Z,0
2016-03-02T00:35:02.354Z,0
2016-03-02T00:36:02.388Z,0
2016-03-02T00:37:02.454Z,0
2016-03-02T00:38:02.487Z,0
2016-03-02T00:39:02.552Z,0
2016-03-02T00:40:02.587Z,0
2016-03-02T00:41:02.636Z,0
2016-03-02T00:42:02.701Z,0
2016-03-02T00:43:02.750Z,0
2016-03-02T00:44:02.800Z,0
2016-03-02T00:45:02.849Z,0
2016-03-02T00:46:02.914Z,0
2016-03-02T00:47:02.949Z,0
2016-03-02T00:48:02.998Z,0
2016-03-02T00:49:03.063Z,0
2016-03-02T00:50:03.097Z,0
2016-03-02T00:51:03.178Z,0
2016-03-02T00:52:03.212Z,0
2016-03-02T00:53:03.293Z,0
2016-03-02T00:54:03.295Z,0
2016-03-02T00:55:03.361Z,0
2016-03-02T00:56:03.410Z,0
2016-03-02T00:57:03.460Z,0
2016-03-02T00:58:03.494Z,0
2016-03-02T00:59:03.559Z,0
2016-03-02T01:00:03.624Z,0
2016-03-02T01:01:03.658Z,0
2016-03-02T01:02:03.724Z,0
2016-03-02T01:03:03.632Z,0
2016-03-02T01:04:03.806Z,0
2016-03-02T01:05:03.873Z,0
2016-03-02T01:06:03.921Z,0
2016-03-02T01:07:03.971Z,0
2016-03-02T01:08:04.051Z,0
2016-03-02T01:09:04.070Z,0
2016-03-02T01:10:04.120Z,0
2016-03-02T01:11:04.184Z,0
2016-03-02T01:12:04.220Z,0
2016-03-02T01:13:04.300Z,0
2016-03-02T01:14:04.333Z,0
2016-03-02T01:15:04.383Z,0
2016-03-02T01:16:04.433Z,0
2016-03-02T01:17:04.483Z,0
2016-03-02T01:18:04.533Z,0
2016-03-02T01:19:04.581Z,0
2016-03-02T01:20:04.631Z,0
2016-03-02T01:21:04.680Z,0
2016-03-02T01:22:04.746Z,0
2016-03-02T01:23:04.796Z,0
2016-03-02T01:24:04.829Z,0
2016-03-02T01:25:04.879Z,0
2016-03-02T01:26:04.929Z,0
2016-03-02T01:27:04.977Z,0
2016-03-02T01:28:05.043Z,0
2016-03-02T01:29:05.093Z,0
2016-03-02T01:30:05.158Z,0
2016-03-02T01:31:05.192Z,0
2016-03-02T01:32:05.226Z,0
2016-03-02T01:33:05.291Z,0
2016-03-02T01:34:05.340Z,0
2016-03-02T01:35:05.390Z,0
2016-03-02T01:36:05.456Z,0
2016-03-02T01:37:05.490Z,0
2016-03-02T01:38:05.554Z,0
2016-03-02T01:39:05.589Z,0
2016-03-02T01:40:05.654Z,0
2016-03-02T01:41:05.687Z,0
2016-03-02T01:42:05.753Z,0
2016-03-02T01:43:05.787Z,0
2016-03-02T01:44:05.867Z,0
2016-03-02T01:45:05.886Z,0
2016-03-02T01:46:05.982Z,0
2016-03-02T01:47:05.986Z,0
2016-03-02T01:48:06.050Z,0
2016-03-02T01:49:06.116Z,0
2016-03-02T01:50:06.150Z,0
2016-03-02T01:51:06.199Z,0
2016-03-02T01:52:06.248Z,0
2016-03-02T01:53:06.298Z,0
2016-03-02T01:54:06.347Z,0
2016-03-02T01:55:06.397Z,0
2016-03-02T01:56:06.462Z,0
2016-03-02T01:57:06.496Z,0
2016-03-02T01:58:06.593Z,0
2016-03-02T01:59:06.595Z,0
2016-03-02T02:00:06.646Z,0
2016-03-02T02:01:06.710Z,0
2016-03-02T02:02:06.759Z,0
2016-03-02T02:03:06.824Z,0
2016-03-02T02:04:06.859Z,0
2016-03-02T02:05:06.924Z,0
2016-03-02T02:06:06.967Z,0
2016-03-02T02:07:07.033Z,0
2016-03-02T02:08:07.051Z,0
2016-03-02T02:09:07.100Z,0
2016-03-02T02:10:07.181Z,0
2016-03-02T02:11:07.200Z,0
2016-03-02T02:12:07.264Z,0
2016-03-02T02:13:07.314Z,0
2016-03-02T02:14:07.380Z,0
2016-03-02T02:15:07.414Z,0
2016-03-02T02:16:07.494Z,0
2016-03-02T02:17:07.513Z,0
2016-03-02T02:18:07.563Z,0
2016-03-02T02:19:07.627Z,0
2016-03-02T02:20:07.661Z,0
2016-03-02T02:21:07.711Z,0
2016-03-02T02:22:07.761Z,0
2016-03-02T02:23:07.826Z,0
2016-03-02T02:24:07.876Z,0
2016-03-02T02:25:07.925Z,0
2016-03-02T02:26:07.974Z,0
2016-03-02T02:27:08.040Z,0
2016-03-02T02:28:08.074Z,0
2016-03-02T02:29:08.185Z,0
2016-03-02T02:30:08.173Z,0
2016-03-02T02:31:08.237Z,0
2016-03-02T02:32:08.273Z,0
2016-03-02T02:33:08.353Z,0
2016-03-02T02:34:08.387Z,0
2016-03-02T02:35:08.452Z,0
2016-03-02T02:36:08.486Z,0
2016-03-02T02:37:08.519Z,0
2016-03-02T02:38:08.601Z,0
2016-03-02T02:39:08.634Z,0
2016-03-02T02:40:08.684Z,0
2016-03-02T02:41:08.749Z,0
2016-03-02T02:42:08.783Z,0
2016-03-02T02:43:08.833Z,0
2016-03-02T02:44:08.913Z,0
2016-03-02T02:45:08.948Z,0
2016-03-02T02:46:09.013Z,0
2016-03-02T02:47:09.030Z,0
2016-03-02T02:48:09.096Z,0
2016-03-02T02:49:09.130Z,0
2016-03-02T02:50:09.211Z,0
2016-03-02T02:51:09.229Z,0
2016-03-02T02:52:09.279Z,0
2016-03-02T02:53:09.360Z,0
2016-03-02T02:54:09.393Z,0
2016-03-02T02:55:09.444Z,0
2016-03-02T02:56:09.493Z,0
2016-03-02T02:57:09.543Z,0
2016-03-02T02:58:09.592Z,0
2016-03-02T02:59:09.657Z,0
2016-03-02T03:00:09.707Z,0
2016-03-02T03:01:09.771Z,0
2016-03-02T03:02:09.806Z,0
2016-03-02T03:03:09.871Z,0
2016-03-02T03:04:09.889Z,0
2016-03-02T03:05:09.954Z,0
2016-03-02T03:06:10.020Z,0
2016-03-02T03:07:10.054Z,0
2016-03-02T03:08:10.103Z,0
2016-03-02T03:09:10.153Z,0
2016-03-02T03:10:10.203Z,0
2016-03-02T03:11:10.252Z,0
2016-03-02T03:12:10.300Z,0
2016-03-02T03:13:10.367Z,0
2016-03-02T03:14:10.416Z,0
2016-03-02T03:15:10.466Z,0
2016-03-02T03:16:10.531Z,0
2016-03-02T03:17:10.549Z,0
2016-03-02T03:18:10.614Z,0
2016-03-02T03:19:10.648Z,0
2016-03-02T03:20:10.714Z,0
2016-03-02T03:21:10.779Z,0
2016-03-02T03:22:10.827Z,0
2016-03-02T03:23:10.862Z,0
2016-03-02T03:24:10.912Z,0
2016-03-02T03:25:10.977Z,0
2016-03-02T03:26:11.011Z,0
2016-03-02T03:27:11.092Z,0
2016-03-02T03:28:11.110Z,0
2016-03-02T03:29:11.175Z,0
2016-03-02T03:30:11.210Z,0
2016-03-02T03:31:11.290Z,0
2016-03-02T03:32:11.324Z,0
2016-03-02T03:33:11.373Z,0
2016-03-02T03:34:11.423Z,0
2016-03-02T03:35:11.473Z,0
2016-03-02T03:36:11.522Z,0
2016-03-02T03:37:11.588Z,0
2016-03-02T03:38:11.621Z,0
2016-03-02T03:39:11.702Z,0
2016-03-02T03:40:11.720Z,0
2016-03-02T03:41:11.786Z,0
2016-03-02T03:42:11.819Z,0
2016-03-02T03:43:11.884Z,0
2016-03-02T03:44:11.919Z,0
2016-03-02T03:45:11.969Z,0
2016-03-02T03:46:12.017Z,0
2016-03-02T03:47:12.083Z,0
2016-03-02T03:48:12.133Z,0
2016-03-02T03:49:12.197Z,0
2016-03-02T03:50:12.216Z,0
2016-03-02T03:51:12.280Z,0
2016-03-02T03:52:12.330Z,0
2016-03-02T03:53:12.380Z,0
2016-03-02T03:54:12.445Z,0
2016-03-02T03:55:12.480Z,0
2016-03-02T03:56:12.529Z,0
2016-03-02T03:57:12.594Z,0
2016-03-02T03:58:12.629Z,0
2016-03-02T03:59:12.677Z,0
2016-03-02T04:00:12.743Z,0
2016-03-02T04:01:12.777Z,0
2016-03-02T04:02:12.827Z,0
2016-03-02T04:03:12.892Z,0
2016-03-02T04:04:12.940Z,0
2016-03-02T04:05:13.007Z,0
2016-03-02T04:06:13.040Z,0
2016-03-02T04:07:13.090Z,0
2016-03-02T04:08:13.139Z,0
2016-03-02T04:09:13.189Z,0
2016-03-02T04:10:13.239Z,0
2016-03-02T04:11:13.304Z,0
2016-03-02T04:12:13.354Z,0
2016-03-02T04:13:13.419Z,0
2016-03-02T04:14:13.452Z,0
2016-03-02T04:15:13.486Z,0
2016-03-02T04:16:13.536Z,0
2016-03-02T04:17:13.585Z,0
2016-03-02T04:18:13.651Z,0
2016-03-02T04:19:13.700Z,0
2016-03-02T04:20:13.749Z,0
2016-03-02T04:21:13.799Z,0
2016-03-02T04:22:13.849Z,0
2016-03-02T04:23:13.899Z,0
2016-03-02T04:24:13.948Z,0
2016-03-02T04:25:13.997Z,0
2016-03-02T04:26:14.063Z,0
2016-03-02T04:27:14.112Z,0
2016-03-02T04:28:14.163Z,0
2016-03-02T04:29:14.227Z,0
2016-03-02T04:30:14.277Z,0
2016-03-02T04:31:14.310Z,0
2016-03-02T04:32:14.360Z,0
2016-03-02T04:33:14.410Z,0
2016-03-02T04:34:14.459Z,0
2016-03-02T04:35:14.509Z,0
2016-03-02T04:36:14.559Z,0
2016-03-02T04:37:14.608Z,0
2016-03-02T04:38:14.642Z,0
2016-03-02T04:39:14.707Z,0
2016-03-02T04:40:14.773Z,0
2016-03-02T04:41:14.806Z,0
2016-03-02T04:42:14.856Z,0
2016-03-02T04:43:14.906Z,0
2016-03-02T04:44:14.971Z,0
2016-03-02T04:45:15.020Z,0
2016-03-02T04:46:15.070Z,0
2016-03-02T04:47:15.119Z,0
2016-03-02T04:48:15.169Z,0
2016-03-02T04:49:15.219Z,0
2016-03-02T04:50:15.268Z,0
2016-03-02T04:51:15.317Z,0
2016-03-02T04:52:15.351Z,0
2016-03-02T04:53:15.417Z,0
2016-03-02T04:54:15.466Z,0
2016-03-02T04:55:15.531Z,0
2016-03-02T04:56:15.566Z,0
2016-03-02T04:57:15.615Z,0
2016-03-02T04:58:15.680Z,0
2016-03-02T04:59:15.714Z,0
2016-03-02T05:00:15.795Z,0
2016-03-02T05:01:15.813Z,0
2016-03-02T05:02:15.893Z,0
2016-03-02T05:03:15.913Z,0
2016-03-02T05:04:15.962Z,0
2016-03-02T05:05:16.043Z,0
2016-03-02T05:06:16.092Z,0
2016-03-02T05:07:16.142Z,0
2016-03-02T05:08:16.176Z,0
2016-03-02T05:09:16.225Z,0
2016-03-02T05:10:16.276Z,0
2016-03-02T05:11:16.340Z,0
2016-03-02T05:12:16.374Z,0
2016-03-02T05:13:16.440Z,0
2016-03-02T05:14:16.473Z,0
2016-03-02T05:15:16.539Z,0
2016-03-02T05:16:16.588Z,0
2016-03-02T05:17:16.653Z,0
2016-03-02T05:18:16.686Z,0
2016-03-02T05:19:16.736Z,0
2016-03-02T05:20:16.786Z,0
2016-03-02T05:21:16.836Z,0
2016-03-02T05:22:16.885Z,0
2016-03-02T05:23:16.935Z,0
2016-03-02T05:24:17.016Z,0
2016-03-02T05:25:17.050Z,0
2016-03-02T05:26:17.083Z,0
2016-03-02T05:27:17.133Z,0
2016-03-02T05:28:17.183Z,0
2016-03-02T05:29:17.076Z,0
2016-03-02T05:30:17.282Z,0
2016-03-02T05:31:17.332Z,0
2016-03-02T05:32:17.381Z,0
2016-03-02T05:33:17.446Z,0
2016-03-02T05:34:17.512Z,0
2016-03-02T05:35:17.546Z,0
2016-03-02T05:36:17.610Z,0
2016-03-02T05:37:17.644Z,0
2016-03-02T05:38:17.679Z,0
2016-03-02T05:39:17.728Z,0
2016-03-02T05:40:17.793Z,0
2016-03-02T05:41:17.859Z,0
2016-03-02T05:42:17.892Z,0
2016-03-02T05:43:17.957Z,0
2016-03-02T05:44:18.007Z,0
2016-03-02T05:45:18.041Z,0
2016-03-02T05:46:18.090Z,0
2016-03-02T05:47:18.139Z,0
2016-03-02T05:48:18.189Z,0
2016-03-02T05:49:18.255Z,0
2016-03-02T05:50:18.288Z,0
2016-03-02T05:51:18.370Z,0
2016-03-02T05:52:18.388Z,0
2016-03-02T05:53:18.438Z,0
2016-03-02T05:54:18.487Z,0
2016-03-02T05:55:18.552Z,0
2016-03-02T05:56:18.602Z,0
2016-03-02T05:57:18.666Z,0
2016-03-02T05:58:18.701Z,0
2016-03-02T05:59:18.750Z,0
2016-03-02T06:00:18.799Z,0
2016-03-02T06:01:18.850Z,0
2016-03-02T06:02:18.899Z,0
2016-03-02T06:03:18.948Z,0
2016-03-02T06:04:18.998Z,0
2016-03-02T06:05:19.063Z,0
2016-03-02T06:06:19.223Z,0
2016-03-02T06:07:19.146Z,0
2016-03-02T06:08:19.196Z,0
2016-03-02T06:09:19.246Z,0
2016-03-02T06:10:19.326Z,0
2016-03-02T06:11:19.362Z,0
2016-03-02T06:12:19.410Z,0
2016-03-02T06:13:19.460Z,0
2016-03-02T06:14:19.369Z,0
2016-03-02T06:15:19.543Z,0
2016-03-02T06:16:19.593Z,0
2016-03-02T06:17:19.658Z,0
2016-03-02T06:18:19.708Z,0
2016-03-02T06:19:19.773Z,0
2016-03-02T06:20:19.822Z,0
2016-03-02T06:21:19.903Z,0
2016-03-02T06:22:19.906Z,0
2016-03-02T06:23:19.971Z,0
2016-03-02T06:24:20.005Z,0
2016-03-02T06:25:20.055Z,0
2016-03-02T06:26:20.119Z,0
2016-03-02T06:27:20.154Z,0
2016-03-02T06:28:20.234Z,0
2016-03-02T06:29:20.269Z,0
2016-03-02T06:30:20.302Z,0
2016-03-02T06:31:20.368Z,0
2016-03-02T06:32:20.418Z,0
2016-03-02T06:33:20.466Z,0
2016-03-02T06:34:20.532Z,0
2016-03-02T06:35:20.582Z,0
2016-03-02T06:36:20.631Z,4
2016-03-02T06:37:20.665Z,4
2016-03-02T06:38:20.730Z,4
2016-03-02T06:39:20.780Z,4
2016-03-02T06:40:20.829Z,0
2016-03-02T06:41:20.863Z,0
2016-03-02T06:42:20.928Z,0
2016-03-02T06:43:20.963Z,0
2016-03-02T06:44:21.012Z,4
2016-03-02T06:45:21.077Z,0
2016-03-02T06:46:21.126Z,0
2016-03-02T06:47:21.176Z,0
2016-03-02T06:48:21.211Z,4
2016-03-02T06:49:21.276Z,4
2016-03-02T06:50:21.325Z,4
2016-03-02T06:51:21.405Z,4
2016-03-02T06:52:21.439Z,4
2016-03-02T06:53:21.474Z,4
2016-03-02T06:54:21.523Z,4
2016-03-02T06:55:21.573Z,4
2016-03-02T06:56:21.622Z,4
2016-03-02T06:57:21.688Z,4
2016-03-02T06:58:21.737Z,4
2016-03-02T06:59:21.787Z,4
2016-03-02T07:00:21.836Z,4
2016-03-02T07:01:21.871Z,4
2016-03-02T07:02:21.935Z,0
2016-03-02T07:03:21.970Z,0
2016-03-02T07:04:22.035Z,0
2016-03-02T07:05:22.084Z,4
2016-03-02T07:06:22.227Z,4
2016-03-02T07:07:22.199Z,4
2016-03-02T07:08:22.218Z,0
2016-03-02T07:09:22.283Z,4
2016-03-02T07:10:22.332Z,4
2016-03-02T07:11:22.382Z,8
2016-03-02T07:12:22.446Z,8
2016-03-02T07:13:22.497Z,12
2016-03-02T07:14:22.531Z,12
2016-03-02T07:15:22.611Z,12
2016-03-02T07:16:22.630Z,8
2016-03-02T07:17:22.695Z,12
2016-03-02T07:18:22.729Z,12
2016-03-02T07:19:22.794Z,8
2016-03-02T07:20:22.859Z,12
2016-03-02T07:21:22.909Z,16
2016-03-02T07:22:22.927Z,12
2016-03-02T07:23:22.992Z,12
2016-03-02T07:24:23.042Z,8
2016-03-02T07:25:23.092Z,8
2016-03-02T07:26:23.125Z,12
2016-03-02T07:27:23.035Z,12
2016-03-02T07:28:23.100Z,8
2016-03-02T07:29:23.306Z,8
2016-03-02T07:30:23.371Z,12
2016-03-02T07:31:23.389Z,8
2016-03-02T07:32:23.439Z,12
2016-03-02T07:33:23.488Z,12
2016-03-02T07:34:23.554Z,8
2016-03-02T07:35:23.589Z,8
2016-03-02T07:36:23.559Z,8
2016-03-02T07:37:23.687Z,8
2016-03-02T07:38:23.736Z,8
2016-03-02T07:39:23.802Z,12
2016-03-02T07:40:23.835Z,8
2016-03-02T07:41:23.900Z,12
2016-03-02T07:42:23.950Z,12
2016-03-02T07:43:23.984Z,12
2016-03-02T07:44:24.050Z,12
2016-03-02T07:45:24.115Z,12
2016-03-02T07:46:24.149Z,16
2016-03-02T07:47:24.198Z,16
2016-03-02T07:48:24.232Z,16
2016-03-02T07:49:24.329Z,16
2016-03-02T07:50:24.363Z,16
2016-03-02T07:51:24.459Z,16
2016-03-02T07:52:24.445Z,16
2016-03-02T07:53:24.511Z,16
2016-03-02T07:54:24.560Z,16
2016-03-02T07:55:24.578Z,20
2016-03-02T07:56:24.628Z,24
2016-03-02T07:57:24.537Z,24
2016-03-02T07:58:24.743Z,20
2016-03-02T07:59:24.792Z,28
2016-03-02T08:00:24.686Z,28
2016-03-02T08:01:24.892Z,24
2016-03-02T08:02:24.956Z,24
2016-03-02T08:03:24.991Z,24
2016-03-02T08:04:25.103Z,28
2016-03-02T08:05:24.934Z,28
2016-03-02T08:06:25.593Z,28
2016-03-02T08:07:25.189Z,28
2016-03-02T08:08:25.239Z,24
2016-03-02T08:09:25.289Z,28
2016-03-02T08:10:25.432Z,28
2016-03-02T08:11:25.388Z,24
2016-03-02T08:12:25.453Z,20
2016-03-02T08:13:25.487Z,20
2016-03-02T08:14:25.536Z,28
2016-03-02T08:15:25.585Z,28
2016-03-02T08:16:25.635Z,24
2016-03-02T08:17:25.685Z,24
2016-03-02T08:18:25.750Z,24
2016-03-02T08:19:25.785Z,28
2016-03-02T08:20:25.850Z,28
2016-03-02T08:21:26.102Z,32
2016-03-02T08:22:25.949Z,32
2016-03-02T08:23:25.998Z,28
2016-03-02T08:24:26.048Z,28
2016-03-02T08:25:26.097Z,32
2016-03-02T08:26:26.162Z,28
2016-03-02T08:27:26.228Z,28
2016-03-02T08:28:26.246Z,32
2016-03-02T08:29:25.562Z,32
2016-03-02T08:30:26.439Z,36
2016-03-02T08:31:26.410Z,36
2016-03-02T08:32:26.429Z,32
2016-03-02T08:33:26.509Z,32
2016-03-02T08:34:26.559Z,28
2016-03-02T08:35:26.608Z,44
2016-03-02T08:36:26.705Z,40
2016-03-02T08:37:26.666Z,36
2016-03-02T08:38:26.718Z,36
2016-03-02T08:39:26.783Z,44
2016-03-02T08:40:26.786Z,36
2016-03-02T08:41:26.821Z,32
2016-03-02T08:42:26.984Z,32
2016-03-02T08:43:26.902Z,32
2016-03-02T08:44:26.947Z,28
2016-03-02T08:45:26.991Z,28
2016-03-02T08:46:27.019Z,24
2016-03-02T08:47:27.082Z,24
2016-03-02T08:48:27.145Z,24
2016-03-02T08:49:27.474Z,24
2016-03-02T08:50:27.241Z,28
2016-03-02T08:51:27.179Z,28
2016-03-02T08:52:27.336Z,32
2016-03-02T08:53:27.385Z,32
2016-03-02T08:54:27.418Z,32
2016-03-02T08:55:27.467Z,36
2016-03-02T08:56:27.516Z,36
2016-03-02T08:57:27.565Z,36
2016-03-02T08:58:27.631Z,48
2016-03-02T08:59:27.680Z,44
2016-03-02T09:00:27.713Z,44
2016-03-02T09:01:27.763Z,56
2016-03-02T09:02:27.813Z,52
2016-03-02T09:03:27.878Z,76
2016-03-02T09:04:27.912Z,76
2016-03-02T09:05:27.993Z,64
2016-03-02T09:06:28.012Z,32
2016-03-02T09:07:28.061Z,40
2016-03-02T09:08:28.126Z,36
2016-03-02T09:09:28.160Z,28
2016-03-02T09:10:28.209Z,28
2016-03-02T09:11:28.243Z,32
2016-03-02T09:12:28.293Z,36
2016-03-02T09:13:28.358Z,32
2016-03-02T09:14:28.408Z,32
2016-03-02T09:15:28.442Z,28
2016-03-02T09:16:28.506Z,28
2016-03-02T09:17:28.557Z,28
2016-03-02T09:18:28.606Z,24
2016-03-02T09:19:28.656Z,24
2016-03-02T09:20:28.550Z,24
2016-03-02T09:21:28.739Z,20
2016-03-02T09:22:28.805Z,24
2016-03-02T09:23:28.853Z,20
2016-03-02T09:24:28.903Z,16
2016-03-02T09:25:28.953Z,20
2016-03-02T09:26:28.987Z,24
2016-03-02T09:27:29.052Z,20
2016-03-02T09:28:29.086Z,24
2016-03-02T09:29:29.136Z,24
2016-03-02T09:30:29.202Z,24
2016-03-02T09:31:29.250Z,24
2016-03-02T09:32:29.300Z,24
2016-03-02T09:33:29.349Z,28
2016-03-02T09:34:29.383Z,24
2016-03-02T09:35:29.433Z,28
2016-03-02T09:36:29.482Z,32
2016-03-02T09:37:29.549Z,32
2016-03-02T09:38:29.582Z,36
2016-03-02T09:39:29.632Z,32
2016-03-02T09:40:29.682Z,32
2016-03-02T09:41:29.590Z,32
2016-03-02T09:42:29.812Z,32
2016-03-02T09:43:29.845Z,32
2016-03-02T09:44:29.879Z,32
2016-03-02T09:45:29.944Z,32
2016-03-02T09:46:29.994Z,32
2016-03-02T09:47:30.012Z,32
2016-03-02T09:48:30.077Z,32
2016-03-02T09:49:30.127Z,28
2016-03-02T09:50:30.176Z,28
2016-03-02T09:51:30.242Z,28
2016-03-02T09:52:29.526Z,28
2016-03-02T09:53:30.341Z,28
2016-03-02T09:54:29.625Z,28
2016-03-02T09:55:30.455Z,32
2016-03-02T09:56:30.489Z,40
2016-03-02T09:57:30.523Z,40
2016-03-02T09:58:30.588Z,44
2016-03-02T09:59:30.638Z,40
2016-03-02T10:00:30.672Z,44
2016-03-02T10:01:30.721Z,40
2016-03-02T10:02:30.803Z,36
2016-03-02T10:03:30.821Z,32
2016-03-02T10:04:30.902Z,28
2016-03-02T10:05:30.779Z,28
2016-03-02T10:06:30.969Z,28
2016-03-02T10:07:31.035Z,36
2016-03-02T10:08:31.068Z,40
2016-03-02T10:09:31.150Z,48
2016-03-02T10:10:31.168Z,56
2016-03-02T10:11:31.249Z,60
2016-03-02T10:12:31.282Z,64
2016-03-02T10:13:31.332Z,68
2016-03-02T10:14:31.365Z,64
2016-03-02T10:15:31.447Z,64
2016-03-02T10:16:31.465Z,64
2016-03-02T10:17:31.373Z,64
2016-03-02T10:18:31.595Z,68
2016-03-02T10:19:31.645Z,72
2016-03-02T10:20:31.664Z,72
2016-03-02T10:21:31.745Z,72
2016-03-02T10:22:31.778Z,68
2016-03-02T10:23:31.812Z,68
2016-03-02T10:24:31.878Z,68
2016-03-02T10:25:31.958Z,56
2016-03-02T10:26:31.992Z,60
2016-03-02T10:27:32.025Z,52
2016-03-02T10:28:32.075Z,56
2016-03-02T10:29:32.110Z,60
2016-03-02T10:30:32.191Z,60
2016-03-02T10:31:32.225Z,56
2016-03-02T10:32:32.274Z,60
2016-03-02T10:33:32.324Z,56
2016-03-02T10:34:32.404Z,52
2016-03-02T10:35:32.438Z,52
2016-03-02T10:36:32.471Z,48
2016-03-02T10:37:32.522Z,52
2016-03-02T10:38:32.555Z,52
2016-03-02T10:39:32.605Z,56
2016-03-02T10:40:32.655Z,56
2016-03-02T10:41:32.705Z,60
2016-03-02T10:42:32.754Z,64
2016-03-02T10:43:32.804Z,68
2016-03-02T10:44:32.837Z,76
2016-03-02T10:45:32.903Z,76
2016-03-02T10:46:32.999Z,84
2016-03-02T10:47:33.001Z,92
2016-03-02T10:48:33.036Z,96
2016-03-02T10:49:32.945Z,100
2016-03-02T10:50:33.150Z,100
2016-03-02T10:51:33.215Z,100
2016-03-02T10:52:33.250Z,96
2016-03-02T10:53:33.314Z,100
2016-03-02T10:54:33.333Z,104
2016-03-02T10:55:33.414Z,104
2016-03-02T10:56:33.448Z,108
2016-03-02T10:57:33.529Z,108
2016-03-02T10:58:33.531Z,108
2016-03-02T10:59:33.597Z,116
2016-03-02T11:00:33.646Z,128
2016-03-02T11:01:33.680Z,136
2016-03-02T11:02:33.745Z,144
2016-03-02T11:03:33.779Z,152
2016-03-02T11:04:33.845Z,168
2016-03-02T11:05:33.878Z,200
2016-03-02T11:06:33.927Z,320
2016-03-02T11:07:33.994Z,372
2016-03-02T11:08:34.043Z,176
2016-03-02T11:09:34.107Z,192
2016-03-02T11:10:34.173Z,228
2016-03-02T11:11:33.426Z,172
2016-03-02T11:12:34.272Z,144
2016-03-02T11:13:34.259Z,140
2016-03-02T11:14:34.324Z,156
2016-03-02T11:15:34.374Z,188
2016-03-02T11:16:34.251Z,140
2016-03-02T11:17:34.473Z,164
2016-03-02T11:18:34.507Z,224
2016-03-02T11:19:34.604Z,180
2016-03-02T11:20:34.606Z,140
2016-03-02T11:21:34.656Z,148
2016-03-02T11:22:34.736Z,164
2016-03-02T11:23:34.801Z,256
2016-03-02T11:24:34.804Z,268
2016-03-02T11:25:34.886Z,156
2016-03-02T11:26:34.904Z,220
2016-03-02T11:27:35.016Z,180
2016-03-02T11:28:35.003Z,156
2016-03-02T11:29:35.146Z,164
2016-03-02T11:30:35.102Z,252
2016-03-02T11:31:35.152Z,176
2016-03-02T11:32:35.217Z,148
2016-03-02T11:33:35.297Z,124
2016-03-02T11:34:35.894Z,176
2016-03-02T11:35:35.350Z,180
2016-03-02T11:36:35.399Z,240
2016-03-02T11:37:35.433Z,280
2016-03-02T11:38:35.499Z,256
2016-03-02T11:39:35.549Z,248
2016-03-02T11:40:35.660Z,324
2016-03-02T11:41:35.646Z,216
2016-03-02T11:42:35.727Z,184
2016-03-02T11:43:35.746Z,176
2016-03-02T11:44:35.780Z,216
2016-03-02T11:45:35.846Z,212
2016-03-02T11:46:35.879Z,216
2016-03-02T11:47:35.945Z,184
2016-03-02T11:48:35.978Z,168
2016-03-02T11:49:35.887Z,160
2016-03-02T11:50:36.078Z,152
2016-03-02T11:51:36.126Z,160
2016-03-02T11:52:36.177Z,148
2016-03-02T11:53:36.226Z,196
2016-03-02T11:54:36.276Z,144
2016-03-02T11:55:36.341Z,268
2016-03-02T11:56:36.375Z,112
2016-03-02T11:57:36.425Z,124
2016-03-02T11:58:36.489Z,144
2016-03-02T11:59:36.539Z,184
2016-03-02T12:00:36.573Z,140
2016-03-02T12:01:36.466Z,124
2016-03-02T12:02:36.673Z,104
2016-03-02T12:03:36.738Z,216
2016-03-02T12:04:36.771Z,156
2016-03-02T12:05:36.817Z,228
2016-03-02T12:06:36.898Z,124
2016-03-02T12:07:36.917Z,120
2016-03-02T12:08:36.966Z,224
2016-03-02T12:09:37.015Z,224
2016-03-02T12:10:37.065Z,224
2016-03-02T12:11:37.115Z,200
2016-03-02T12:12:37.195Z,228
2016-03-02T12:13:37.058Z,204
2016-03-02T12:14:37.263Z,200
2016-03-02T12:15:37.314Z,112
2016-03-02T12:16:37.362Z,108
2016-03-02T12:17:37.412Z,184
2016-03-02T12:18:37.477Z,104
2016-03-02T12:19:37.527Z,176
2016-03-02T12:20:37.420Z,116
2016-03-02T12:21:37.626Z,128
2016-03-02T12:22:37.660Z,220
2016-03-02T12:23:37.725Z,184
2016-03-02T12:24:37.775Z,124
2016-03-02T12:25:37.808Z,168
2016-03-02T12:26:37.858Z,104
2016-03-02T12:27:37.907Z,192
2016-03-02T12:28:37.957Z,184
2016-03-02T12:29:38.022Z,184
2016-03-02T12:30:38.056Z,176
2016-03-02T12:31:38.106Z,168
2016-03-02T12:32:38.155Z,176
2016-03-02T12:33:38.221Z,104
2016-03-02T12:34:38.270Z,104
2016-03-02T12:35:38.336Z,96
2016-03-02T12:36:38.369Z,120
2016-03-02T12:37:38.263Z,108
2016-03-02T12:38:38.485Z,96
2016-03-02T12:39:38.518Z,84
2016-03-02T12:40:38.567Z,76
2016-03-02T12:41:38.617Z,96
2016-03-02T12:42:38.682Z,88
2016-03-02T12:43:38.717Z,92
2016-03-02T12:44:38.797Z,96
2016-03-02T12:45:38.831Z,156
2016-03-02T12:46:38.865Z,144
2016-03-02T12:47:38.193Z,124
2016-03-02T12:48:38.978Z,108
2016-03-02T12:49:39.027Z,104
2016-03-02T12:50:39.092Z,92
2016-03-02T12:51:39.126Z,96
2016-03-02T12:52:39.176Z,96
2016-03-02T12:53:39.241Z,104
2016-03-02T12:54:39.274Z,100
2016-03-02T12:55:39.324Z,120
2016-03-02T12:56:39.375Z,108
2016-03-02T12:57:39.439Z,116
2016-03-02T12:58:39.473Z,100
2016-03-02T12:59:39.413Z,88
2016-03-02T13:00:39.572Z,84
2016-03-02T13:01:39.622Z,72
2016-03-02T13:02:39.702Z,56
2016-03-02T13:03:39.752Z,52
2016-03-02T13:04:39.786Z,44
2016-03-02T13:05:39.836Z,48
2016-03-02T13:06:39.902Z,36
2016-03-02T13:07:39.919Z,40
2016-03-02T13:08:39.969Z,40
2016-03-02T13:09:40.019Z,48
2016-03-02T13:10:40.099Z,64
2016-03-02T13:11:40.118Z,76
2016-03-02T13:12:40.215Z,88
2016-03-02T13:13:40.232Z,84
2016-03-02T13:14:40.282Z,80
2016-03-02T13:15:40.332Z,84
2016-03-02T13:16:40.381Z,80
2016-03-02T13:17:40.446Z,96
2016-03-02T13:18:40.496Z,84
2016-03-02T13:19:40.545Z,88
2016-03-02T13:20:40.595Z,84
2016-03-02T13:21:40.645Z,80
2016-03-02T13:22:40.726Z,80
2016-03-02T13:23:40.728Z,68
2016-03-02T13:24:40.793Z,60
2016-03-02T13:25:40.828Z,76
2016-03-02T13:26:40.908Z,88
2016-03-02T13:27:40.942Z,68
2016-03-02T13:28:41.039Z,80
2016-03-02T13:29:41.041Z,72
2016-03-02T13:30:41.106Z,72
2016-03-02T13:31:41.187Z,76
2016-03-02T13:32:41.190Z,88
2016-03-02T13:33:41.255Z,104
2016-03-02T13:34:41.305Z,108
2016-03-02T13:35:41.370Z,88
2016-03-02T13:36:41.435Z,84
2016-03-02T13:37:41.469Z,68
2016-03-02T13:38:41.518Z,92
2016-03-02T13:39:41.553Z,88
2016-03-02T13:40:41.602Z,92
2016-03-02T13:41:41.635Z,84
2016-03-02T13:42:41.686Z,84
2016-03-02T13:43:41.782Z,80
2016-03-02T13:44:41.801Z,84
2016-03-02T13:45:41.850Z,48
2016-03-02T13:46:41.915Z,84
2016-03-02T13:47:41.965Z,84
2016-03-02T13:48:41.998Z,84
2016-03-02T13:49:42.065Z,84
2016-03-02T13:50:42.098Z,80
2016-03-02T13:51:42.162Z,72
2016-03-02T13:52:42.244Z,56
2016-03-02T13:53:42.262Z,56
2016-03-02T13:54:42.328Z,56
2016-03-02T13:55:42.361Z,68
2016-03-02T13:56:42.426Z,84
2016-03-02T13:57:42.461Z,64
2016-03-02T13:58:42.509Z,68
2016-03-02T13:59:42.575Z,88
2016-03-02T14:00:42.609Z,92
2016-03-02T14:01:42.659Z,92
2016-03-02T14:02:42.708Z,88
2016-03-02T14:03:42.773Z,88
2016-03-02T14:04:42.838Z,84
2016-03-02T14:05:42.716Z,84
2016-03-02T14:06:42.907Z,88
2016-03-02T14:07:43.034Z,60
2016-03-02T14:08:43.037Z,56
2016-03-02T14:09:43.056Z,52
2016-03-02T14:10:43.137Z,48
2016-03-02T14:11:43.171Z,48
2016-03-02T14:12:43.237Z,48
2016-03-02T14:13:43.254Z,44
2016-03-02T14:14:43.335Z,44
2016-03-02T14:15:43.385Z,44
2016-03-02T14:16:43.403Z,44
2016-03-02T14:17:43.500Z,44
2016-03-02T14:18:43.533Z,48
2016-03-02T14:19:43.583Z,48
2016-03-02T14:20:43.617Z,52
2016-03-02T14:21:43.526Z,60
2016-03-02T14:22:43.733Z,64
2016-03-02T14:23:43.781Z,64
2016-03-02T14:24:43.590Z,60
2016-03-02T14:25:48.466Z,60
2016-03-02T14:26:44.039Z,0
2016-03-02T14:27:43.996Z,0